Time;durP1;ratioP1;P1;durP2;ratioP2;P2;SDS_P1;SDS_P2;PMS_P1;PMS_P2;Temp;Humidity;BMP_temperature;BMP_pressure;BME280_temperature;BME280_humidity;BME280_pressure;Samples;Min_cycle;Max_cycle;Signal;HPM_P1;HPM_P2
2023/10/06 00:00:33;;;;;;;10.05;4.20;;;15.50;90.40;;;;;;7405836;19;20022;-80
2023/10/06 00:03:05;;;;;;;9.75;4.13;;;15.50;90.50;;;;;;7383568;19;20011;-79
2023/10/06 00:05:33;;;;;;;10.13;4.57;;;15.50;90.50;;;;;;7383127;19;20227;-80
2023/10/06 00:08:04;;;;;;;11.98;5.05;;;15.50;90.50;;;;;;7382494;19;20003;-80
2023/10/06 00:10:33;;;;;;;11.63;4.63;;;15.50;90.40;;;;;;7383075;19;20006;-81
2023/10/06 00:13:05;;;;;;;8.30;3.85;;;15.50;90.40;;;;;;7382248;19;20002;-80
2023/10/06 00:15:38;;;;;;;12.00;4.80;;;15.50;90.40;;;;;;7384309;19;20014;-79
2023/10/06 00:18:16;;;;;;;14.52;4.45;;;15.50;90.40;;;;;;7408912;19;20047;-79
2023/10/06 00:21:30;;;;;;;15.93;4.85;;;15.50;90.40;;;;;;7403424;19;20003;-79
2023/10/06 00:23:59;;;;;;;12.27;4.05;;;15.50;90.30;;;;;;7404132;19;20007;-78
2023/10/06 00:26:28;;;;;;;12.48;4.30;;;15.50;90.20;;;;;;7402392;19;20401;-78
2023/10/06 00:29:00;;;;;;;11.07;4.03;;;15.50;90.20;;;;;;7391915;19;20031;-79
2023/10/06 00:31:35;;;;;;;9.80;4.22;;;15.50;90.20;;;;;;7384411;19;20011;-80
2023/10/06 00:34:04;;;;;;;11.50;3.90;;;15.50;90.20;;;;;;7380954;19;20003;-79
2023/10/06 00:36:34;;;;;;;9.63;4.25;;;15.40;90.20;;;;;;7382958;19;20013;-79
2023/10/06 00:39:12;;;;;;;13.63;4.75;;;15.40;90.20;;;;;;7402389;19;20063;-79
2023/10/06 00:41:43;;;;;;;9.75;4.20;;;15.40;90.20;;;;;;7382295;19;20007;-80
2023/10/06 00:44:12;;;;;;;10.00;4.25;;;15.50;90.10;;;;;;7383542;19;20014;-79
2023/10/06 00:46:44;;;;;;;8.73;3.88;;;15.40;90.00;;;;;;7381999;19;20374;-79
2023/10/06 00:49:13;;;;;;;7.78;4.28;;;15.40;90.10;;;;;;7381636;19;20067;-80
2023/10/06 00:51:42;;;;;;;8.55;4.60;;;15.40;90.10;;;;;;7382750;19;20070;-79
2023/10/06 00:54:11;;;;;;;13.32;4.57;;;15.40;90.20;;;;;;7401914;19;20010;-82
2023/10/06 00:56:40;;;;;;;9.25;3.90;;;15.30;90.10;;;;;;7381502;19;20277;-79
2023/10/06 00:59:11;;;;;;;13.00;4.75;;;15.30;90.10;;;;;;7383024;19;20006;-79
2023/10/06 01:01:41;;;;;;;10.95;4.53;;;15.30;90.10;;;;;;7382601;19;20017;-78
2023/10/06 01:04:16;;;;;;;14.77;4.32;;;15.30;90.10;;;;;;7379961;19;20003;-80
2023/10/06 01:06:45;;;;;;;14.30;4.43;;;15.30;90.00;;;;;;7381392;19;20002;-79
2023/10/06 01:09:17;;;;;;;17.27;4.75;;;15.30;89.80;;;;;;7404920;19;20030;-79
2023/10/06 01:11:48;;;;;;;11.60;4.60;;;15.30;89.80;;;;;;7384164;19;20708;-78
2023/10/06 01:14:21;;;;;;;9.53;4.03;;;15.30;89.80;;;;;;7381566;19;20010;-80
2023/10/06 01:16:50;;;;;;;12.10;3.92;;;15.30;89.50;;;;;;7382363;19;20026;-79
2023/10/06 01:19:33;;;;;;;13.95;4.40;;;15.40;89.30;;;;;;7380861;19;20276;-80
2023/10/06 01:22:20;;;;;;;11.15;3.65;;;15.30;89.20;;;;;;7380382;19;20002;-80
2023/10/06 01:24:52;;;;;;;11.18;4.13;;;15.30;89.20;;;;;;7385445;19;20035;-80
2023/10/06 01:27:26;;;;;;;13.27;4.50;;;15.30;89.10;;;;;;7400849;19;20023;-80
2023/10/06 01:30:17;;;;;;;9.68;4.03;;;15.30;89.10;;;;;;7381534;19;20070;-79
2023/10/06 01:32:45;;;;;;;15.85;4.50;;;15.30;89.10;;;;;;7382375;19;20022;-79
2023/10/06 01:35:15;;;;;;;12.68;4.47;;;15.30;89.10;;;;;;7380750;19;20059;-80
2023/10/06 01:37:45;;;;;;;12.05;4.38;;;15.20;89.20;;;;;;7380846;19;20014;-80
2023/10/06 01:40:43;;;;;;;9.52;3.95;;;15.20;89.20;;;;;;7379110;19;20003;-79
2023/10/06 01:43:14;;;;;;;8.57;4.18;;;15.10;89.20;;;;;;7380656;19;20029;-81
2023/10/06 01:45:46;;;;;;;12.32;4.57;;;15.10;89.20;;;;;;7381905;19;20032;-80
2023/10/06 01:50:58;;;;;;;10.98;4.20;;;15.10;89.20;;;;;;7391150;19;20024;-79
2023/10/06 01:53:32;;;;;;;9.55;4.35;;;15.00;89.20;;;;;;7386564;19;20007;-80
2023/10/06 01:56:06;;;;;;;10.02;4.55;;;15.00;88.80;;;;;;7388616;19;20007;-79
2023/10/06 01:58:35;;;;;;;9.75;4.28;;;15.10;88.80;;;;;;7388745;19;20283;-80
2023/10/06 02:01:05;;;;;;;9.88;3.55;;;15.00;89.00;;;;;;7390885;19;20015;-79
2023/10/06 02:03:38;;;;;;;10.95;4.10;;;15.10;89.30;;;;;;7390331;19;20006;-80
2023/10/06 02:06:13;;;;;;;14.13;4.55;;;15.00;89.10;;;;;;7405952;19;20007;-79
2023/10/06 02:08:43;;;;;;;11.45;4.70;;;15.00;89.10;;;;;;7387298;19;20009;-80
2023/10/06 02:11:20;;;;;;;11.48;3.95;;;15.00;89.10;;;;;;7387725;19;20010;-80
2023/10/06 02:13:50;;;;;;;8.63;4.10;;;14.90;89.10;;;;;;7386042;19;20385;-80
2023/10/06 02:16:26;;;;;;;15.07;4.05;;;14.90;89.20;;;;;;7386682;19;20038;-80
2023/10/06 02:18:54;;;;;;;13.45;3.95;;;14.80;89.40;;;;;;7385492;19;20006;-79
2023/10/06 02:21:28;;;;;;;10.85;3.75;;;14.80;89.70;;;;;;7406993;19;20027;-79
2023/10/06 02:24:04;;;;;;;10.02;3.92;;;14.80;89.60;;;;;;7388880;19;20007;-80
2023/10/06 02:26:38;;;;;;;9.88;4.40;;;14.80;89.60;;;;;;7387023;19;20003;-80
2023/10/06 02:29:18;;;;;;;9.85;4.20;;;14.70;89.50;;;;;;7393331;19;20003;-78
2023/10/06 02:31:46;;;;;;;12.48;4.18;;;14.70;89.60;;;;;;7407278;19;20380;-78
2023/10/06 02:34:28;;;;;;;8.57;4.15;;;14.70;89.60;;;;;;7403461;19;20010;-78
2023/10/06 02:36:57;;;;;;;12.50;4.43;;;14.70;89.60;;;;;;7406088;19;20010;-79
2023/10/06 02:39:28;;;;;;;9.68;4.68;;;14.70;89.60;;;;;;7425510;19;20061;-77
2023/10/06 02:42:01;;;;;;;10.35;4.05;;;14.70;89.40;;;;;;7395096;19;20011;-78
2023/10/06 02:44:30;;;;;;;8.95;3.97;;;14.70;89.60;;;;;;7386802;19;20021;-79
2023/10/06 02:47:04;;;;;;;8.50;3.85;;;14.70;89.50;;;;;;7385691;19;20236;-80
2023/10/06 02:49:37;;;;;;;14.15;4.22;;;14.70;89.20;;;;;;7385489;19;20026;-79
2023/10/06 02:52:15;;;;;;;10.13;3.92;;;14.70;89.10;;;;;;7385450;19;20010;-81
2023/10/06 02:54:56;;;;;;;7.95;4.07;;;14.60;89.30;;;;;;7386706;19;20012;-80
2023/10/06 02:57:28;;;;;;;11.50;4.53;;;14.60;89.60;;;;;;7406621;19;20006;-81
2023/10/06 03:00:28;;;;;;;7.78;4.00;;;14.60;89.80;;;;;;7386978;19;20010;-80
2023/10/06 03:02:48;;;;;;;14.15;4.45;;;14.60;90.00;;;;;;7390524;19;20346;-79
2023/10/06 03:05:17;;;;;;;10.25;4.10;;;14.50;89.90;;;;;;7385697;19;20034;-79
2023/10/06 03:07:48;;;;;;;7.70;3.92;;;14.50;89.90;;;;;;7386719;19;20389;-80
2023/10/06 03:10:18;;;;;;;;;;;14.50;89.80;;;;;;7385653;19;20022;-80
2023/10/06 03:12:50;;;;;;;11.07;4.25;;;14.50;89.90;;;;;;7387107;19;19915;-79
2023/10/06 03:15:35;;;;;;;13.45;4.70;;;14.50;89.80;;;;;;7409805;19;20379;-79
2023/10/06 03:18:05;;;;;;;9.77;4.63;;;14.50;89.60;;;;;;7385707;19;20010;-79
2023/10/06 03:20:41;;;;;;;9.95;4.47;;;14.50;89.40;;;;;;7384851;19;20024;-80
2023/10/06 03:23:23;;;;;;;14.63;4.93;;;14.50;89.40;;;;;;7386388;19;20056;-80
2023/10/06 03:25:53;;;;;;;18.08;5.35;;;14.50;89.30;;;;;;7385938;19;20010;-79
2023/10/06 03:28:31;;;;;;;9.73;3.70;;;14.50;89.00;;;;;;7384967;19;20003;-80
2023/10/06 03:31:03;;;;;;;12.48;4.05;;;14.50;89.10;;;;;;7386957;19;20006;-79
2023/10/06 03:33:32;;;;;;;10.80;4.28;;;14.50;89.30;;;;;;7388492;19;19999;-79
2023/10/06 03:36:01;;;;;;;12.35;3.72;;;14.40;89.50;;;;;;7404423;19;20003;-78
2023/10/06 03:38:35;;;;;;;8.68;4.47;;;14.40;89.70;;;;;;7384208;19;20014;-79
2023/10/06 03:41:18;;;;;;;10.18;4.13;;;14.40;89.90;;;;;;7384835;19;20010;-79
2023/10/06 03:43:55;;;;;;;13.13;4.57;;;14.40;89.60;;;;;;7383625;19;20006;-79
2023/10/06 03:46:35;;;;;;;10.93;4.15;;;14.30;89.60;;;;;;7386358;19;20002;-79
2023/10/06 03:49:05;;;;;;;14.73;4.97;;;14.30;89.60;;;;;;7386701;19;20011;-79
2023/10/06 03:51:38;;;;;;;10.45;4.43;;;14.40;89.40;;;;;;7383332;19;20010;-79
2023/10/06 03:54:07;;;;;;;11.25;4.35;;;14.30;89.10;;;;;;7404673;19;20011;-77
2023/10/06 03:56:37;;;;;;;8.38;3.97;;;14.30;89.00;;;;;;7383937;19;20033;-79
2023/10/06 03:59:15;;;;;;;7.65;4.07;;;14.30;89.00;;;;;;7383673;19;20019;-79
2023/10/06 04:01:45;;;;;;;9.63;4.35;;;14.40;89.10;;;;;;7384316;19;20082;-79
2023/10/06 04:04:15;;;;;;;12.48;4.68;;;14.40;89.10;;;;;;7382748;19;20286;-79
2023/10/06 04:06:44;;;;;;;10.85;4.38;;;14.40;89.00;;;;;;7385206;19;20272;-79
2023/10/06 04:09:19;;;;;;;9.27;4.10;;;14.40;88.90;;;;;;7402730;19;20007;-78
2023/10/06 04:12:21;;;;;;;10.95;4.45;;;14.40;88.80;;;;;;7389761;19;20011;-82
2023/10/06 04:14:55;;;;;;;8.13;4.53;;;14.40;88.90;;;;;;7383525;19;20235;-82
2023/10/06 04:17:24;;;;;;;9.65;4.47;;;14.40;89.00;;;;;;7383240;19;20019;-80
2023/10/06 04:19:54;;;;;;;11.40;4.82;;;14.40;88.80;;;;;;7382610;19;20010;-81
2023/10/06 04:22:27;;;;;;;12.10;4.40;;;14.30;89.00;;;;;;7383338;19;20409;-81
2023/10/06 04:25:10;;;;;;;10.93;4.32;;;14.20;89.30;;;;;;7383133;19;20010;-81
2023/10/06 04:28:15;;;;;;;10.18;4.15;;;14.20;89.50;;;;;;7383241;19;20027;-81
2023/10/06 04:31:08;;;;;;;6.90;3.78;;;14.20;89.60;;;;;;7382737;19;20007;-81
2023/10/06 04:33:45;;;;;;;11.75;4.53;;;14.20;89.70;;;;;;7382960;19;20007;-80
2023/10/06 04:36:31;;;;;;;11.60;4.75;;;14.10;89.50;;;;;;7410568;19;20012;-81
2023/10/06 04:39:15;;;;;;;8.65;4.18;;;14.00;89.80;;;;;;7389681;19;20007;-81
2023/10/06 04:42:24;;;;;;;;;;;;;;;;;;;;;
2023/10/06 04:47:55;;;;;;;11.85;4.82;;;13.80;90.20;;;;;;7403896;19;20023;-80
2023/10/06 04:50:50;;;;;;;9.30;4.47;;;13.80;90.30;;;;;;7404933;19;20060;-81
2023/10/06 06:08:40;;;;;;;12.70;4.77;;;13.70;89.10;;;;;;7264331;19;3051716;-79
2023/10/06 06:11:11;;;;;;;13.13;4.82;;;13.80;88.80;;;;;;7416914;19;20243;-81
2023/10/06 06:13:42;;;;;;;11.57;5.00;;;13.80;88.90;;;;;;7419639;19;20006;-81
2023/10/06 06:16:11;;;;;;;15.77;4.95;;;13.80;88.90;;;;;;7420248;19;20381;-80
2023/10/06 06:19:16;;;;;;;;;;;;;;;;;;;;;
2023/10/06 06:22:47;;;;;;;;;;;;;;;;;;;;;
2023/10/06 06:25:51;;;;;;;13.63;4.72;;;13.70;88.90;;;;;;7416266;19;20080;-82
2023/10/06 06:32:26;;;;;;;32.38;9.48;;;13.70;89.40;;;;;;7415657;19;19906;-81
2023/10/06 06:35:13;;;;;;;;;;;13.70;89.20;;;;;;7413875;19;20297;-82
2023/10/06 06:37:42;;;;;;;;;;;13.70;89.00;;;;;;7413471;19;20282;-81
2023/10/06 06:40:27;;;;;;;;;;;13.70;89.40;;;;;;7415169;19;20019;-80
2023/10/06 06:42:59;;;;;;;;;;;13.70;89.70;;;;;;7407798;19;20019;-76
2023/10/06 06:45:29;;;;;;;;;;;13.70;89.80;;;;;;7430447;19;20374;-78
2023/10/06 06:48:02;;;;;;;;;;;13.70;89.80;;;;;;7410019;19;19913;-79
2023/10/06 06:50:30;;;;;;;;;;;13.80;89.80;;;;;;7407703;19;19939;-77
2023/10/06 06:52:59;;;;;;;;;;;13.80;89.80;;;;;;7408964;19;20551;-79
2023/10/06 06:55:29;;;;;;;;;;;13.90;89.90;;;;;;7410932;19;19911;-79
2023/10/06 06:58:05;;;;;;;;;;;13.90;90.00;;;;;;7424569;19;19963;-78
2023/10/06 07:00:39;;;;;;;;;;;13.90;90.00;;;;;;7403137;19;19973;-79
2023/10/06 07:03:07;;;;;;;;;;;13.90;90.10;;;;;;7427300;19;19950;-77
2023/10/06 07:05:36;;;;;;;;;;;13.90;90.10;;;;;;7404220;19;20005;-78
2023/10/06 07:11:14;;;;;;;;;;;14.00;90.20;;;;;;7413175;19;19910;-80
2023/10/06 07:13:45;;;;;;;;;;;14.00;90.40;;;;;;7412825;19;19915;-76
2023/10/06 07:16:15;;;;;;;;;;;14.00;90.50;;;;;;7408999;19;19918;-76
2023/10/06 07:18:45;;;;;;;;;;;14.10;90.40;;;;;;7392488;19;19929;-76
2023/10/06 07:21:17;;;;;;;;;;;14.20;90.40;;;;;;7396776;19;20126;-77
2023/10/06 07:23:51;;;;;;;;;;;14.20;90.40;;;;;;7378992;19;19946;-79
2023/10/06 08:22:06;;;;;;;;;;;15.50;92.20;;;;;;7409329;19;20199;-81
2023/10/06 08:36:13;;;;;;;;;;;15.80;92.40;;;;;;7410414;19;19940;-79
2023/10/06 09:03:14;;;;;;;;;;;16.40;92.90;;;;;;7413944;19;19925;-84
2023/10/06 09:05:51;;;;;;;;;;;16.40;92.90;;;;;;7412759;19;19983;-80
2023/10/06 09:27:25;;;;;;;;;;;16.90;93.10;;;;;;7445474;19;20222;-83
2023/10/06 09:30:05;;;;;;;;;;;16.90;93.20;;;;;;7421339;19;20034;-80
2023/10/06 09:32:35;;;;;;;27.60;8.70;;;16.90;93.20;;;;;;7416549;19;19993;-81
2023/10/06 09:41:41;;;;;;;23.70;8.60;;;17.10;92.60;;;;;;7443083;19;20021;-84
2023/10/06 09:50:22;;;;;;;23.20;7.30;;;17.20;92.20;;;;;;7412401;19;19907;-78
2023/10/06 09:56:18;;;;;;;17.70;6.60;;;17.20;91.10;;;;;;7423566;19;20019;-81
2023/10/06 09:58:52;;;;;;;31.20;6.78;;;17.30;90.70;;;;;;7420305;19;20010;-79
2023/10/06 10:08:48;;;;;;;16.53;6.33;;;17.30;89.20;;;;;;7421042;19;20123;-84
2023/10/06 10:11:28;;;;;;;16.33;5.63;;;17.30;88.70;;;;;;7413186;19;20010;-79
2023/10/06 10:14:21;;;;;;;20.10;6.20;;;17.40;88.40;;;;;;7414096;19;20053;-79
2023/10/06 10:17:16;;;;;;;11.77;6.17;;;17.50;89.00;;;;;;7413927;19;20014;-79
2023/10/06 10:19:48;;;;;;;19.23;6.32;;;17.50;88.20;;;;;;7412308;19;20020;-78
2023/10/06 10:22:18;;;;;;;;;;;17.50;87.60;;;;;;7410374;19;20007;-80
2023/10/06 10:24:47;;;;;;;21.65;5.90;;;17.40;87.40;;;;;;7392128;19;19946;-79
2023/10/06 10:27:27;;;;;;;20.23;5.75;;;17.50;87.30;;;;;;7403902;19;19994;-82
2023/10/06 10:33:09;;;;;;;18.43;5.83;;;17.50;86.90;;;;;;7384174;19;19990;-79
2023/10/06 10:35:39;;;;;;;19.92;5.60;;;17.60;87.20;;;;;;7401483;19;20078;-77
2023/10/06 10:38:08;;;;;;;15.48;5.72;;;17.50;86.80;;;;;;7385016;19;20007;-79
2023/10/06 10:40:50;;;;;;;17.33;5.80;;;17.60;86.80;;;;;;7383139;19;20354;-78
2023/10/06 10:43:21;;;;;;;19.75;5.80;;;17.70;86.60;;;;;;7379391;19;20007;-76
2023/10/06 10:45:50;;;;;;;14.98;5.40;;;17.70;86.80;;;;;;7383721;19;20020;-76
2023/10/06 10:48:22;;;;;;;14.95;5.38;;;17.70;86.90;;;;;;7408147;19;20062;-81
2023/10/06 10:57:25;;;;;;;14.80;5.43;;;17.80;86.00;;;;;;7407318;19;20769;-80
2023/10/06 11:00:20;;;;;;;21.23;5.90;;;17.70;85.60;;;;;;7385037;19;20476;-81
2023/10/06 11:03:04;;;;;;;13.55;5.40;;;17.70;85.20;;;;;;7384254;19;20007;-80
2023/10/06 11:05:34;;;;;;;16.63;5.65;;;17.80;85.30;;;;;;7386007;19;20017;-79
2023/10/06 11:08:05;;;;;;;16.05;5.20;;;17.90;84.70;;;;;;7386583;19;20007;-81
2023/10/06 11:11:00;;;;;;;20.17;4.90;;;17.90;83.90;;;;;;7387130;19;20562;-83
2023/10/06 11:13:31;;;;;;;18.02;4.72;;;18.00;82.90;;;;;;7383205;19;20082;-77
2023/10/06 11:16:09;;;;;;;;;;;17.90;83.80;;;;;;7382400;19;20023;-78
2023/10/06 11:18:41;;;;;;;15.77;5.20;;;18.00;84.40;;;;;;7387494;19;20146;-77
2023/10/06 11:21:25;;;;;;;;;;;18.10;83.70;;;;;;7408024;19;19938;-79
2023/10/06 11:24:05;;;;;;;14.93;4.93;;;18.10;83.00;;;;;;7385918;19;19919;-81
2023/10/06 11:26:34;;;;;;;19.08;5.20;;;18.20;82.30;;;;;;7385270;19;20006;-79
2023/10/06 11:29:07;;;;;;;14.10;4.80;;;18.30;81.70;;;;;;7399694;19;20042;-79
2023/10/06 11:31:43;;;;;;;15.63;5.20;;;18.30;81.40;;;;;;7403756;19;20034;-78
2023/10/06 11:34:18;;;;;;;16.48;4.93;;;18.40;79.40;;;;;;7399592;19;20011;-79
2023/10/06 11:36:56;;;;;;;13.63;4.63;;;18.40;79.90;;;;;;7394579;19;20011;-79
2023/10/06 11:39:29;;;;;;;14.95;4.85;;;18.40;80.50;;;;;;7416970;19;20430;-77
2023/10/06 11:42:27;;;;;;;14.90;5.03;;;18.50;81.20;;;;;;7381960;19;20006;-77
2023/10/06 11:44:57;;;;;;;16.33;4.55;;;18.50;80.50;;;;;;7380956;19;20390;-77
2023/10/06 11:47:42;;;;;;;20.83;5.45;;;18.50;81.40;;;;;;7382725;19;20002;-77
2023/10/06 11:50:25;;;;;;;12.65;4.60;;;18.60;80.80;;;;;;7380557;19;20006;-77
2023/10/06 11:52:56;;;;;;;16.85;5.72;;;18.70;81.40;;;;;;7380100;19;20019;-77
2023/10/06 11:55:31;;;;;;;17.05;5.70;;;18.70;79.60;;;;;;7380268;19;20006;-77
2023/10/06 11:58:01;;;;;;;14.57;4.93;;;18.70;79.40;;;;;;7379595;19;19998;-77
2023/10/06 12:00:37;;;;;;;12.65;4.68;;;18.80;78.60;;;;;;7397542;19;20058;-77
2023/10/06 12:03:11;;;;;;;17.75;4.80;;;18.90;79.40;;;;;;7399166;19;20006;-77
2023/10/06 12:05:42;;;;;;;15.55;4.95;;;19.00;77.10;;;;;;7381251;19;20365;-77
2023/10/06 12:08:12;;;;;;;13.10;4.38;;;19.00;78.10;;;;;;7379505;19;20019;-77
2023/10/06 12:10:52;;;;;;;11.47;4.70;;;19.00;76.30;;;;;;7380229;19;20006;-76
2023/10/06 12:13:21;;;;;;;14.95;5.45;;;19.00;76.60;;;;;;7379319;19;20034;-77
2023/10/06 12:15:50;;;;;;;19.65;6.78;;;19.10;76.00;;;;;;7380291;19;20047;-78
2023/10/06 12:18:22;;;;;;;16.77;5.18;;;19.10;76.60;;;;;;7400609;19;20078;-77
2023/10/06 12:20:52;;;;;;;12.10;5.07;;;19.20;77.40;;;;;;7379364;19;20011;-77
2023/10/06 12:23:23;;;;;;;16.35;5.40;;;19.30;77.80;;;;;;7378790;19;20003;-76
2023/10/06 12:25:51;;;;;;;12.82;4.90;;;19.40;77.80;;;;;;7379020;19;20014;-77
2023/10/06 12:28:25;;;;;;;9.98;4.32;;;19.50;76.80;;;;;;7380190;19;20116;-76
2023/10/06 12:30:54;;;;;;;13.90;4.70;;;19.60;76.00;;;;;;7381416;19;20032;-79
2023/10/06 12:33:27;;;;;;;11.95;4.78;;;19.70;75.70;;;;;;7401437;19;20007;-80
2023/10/06 12:35:57;;;;;;;11.80;4.65;;;19.70;75.80;;;;;;7388744;19;20012;-78
2023/10/06 12:38:30;;;;;;;13.75;5.00;;;19.70;76.60;;;;;;7389790;19;19999;-79
2023/10/06 12:40:59;;;;;;;12.13;4.82;;;19.80;75.80;;;;;;7387034;19;20120;-78
2023/10/06 12:43:35;;;;;;;12.52;4.80;;;19.80;75.40;;;;;;7382631;19;20011;-80
2023/10/06 12:46:08;;;;;;;14.85;5.47;;;19.90;75.90;;;;;;7383376;19;20018;-78
2023/10/06 12:48:39;;;;;;;7.78;3.85;;;20.00;75.70;;;;;;7381298;19;20014;-79
2023/10/06 12:51:11;;;;;;;18.48;4.50;;;20.00;73.20;;;;;;7403267;19;20074;-79
2023/10/06 12:53:40;;;;;;;11.68;4.55;;;20.00;72.50;;;;;;7380251;19;20086;-78
2023/10/06 12:56:09;;;;;;;13.82;5.07;;;20.10;72.70;;;;;;7382588;19;19999;-79
2023/10/06 12:58:49;;;;;;;9.88;4.90;;;20.10;72.90;;;;;;7381139;19;20006;-80
2023/10/06 13:01:17;;;;;;;11.40;4.15;;;20.20;72.80;;;;;;7380798;19;20306;-78
2023/10/06 13:03:49;;;;;;;7.38;3.95;;;20.30;72.70;;;;;;7380290;19;20010;-78
2023/10/06 13:06:18;;;;;;;16.25;4.25;;;20.40;72.10;;;;;;7401602;19;20070;-77
2023/10/06 13:08:51;;;;;;;17.52;5.03;;;20.50;71.50;;;;;;7379365;19;20006;-77
2023/10/06 13:11:23;;;;;;;8.40;3.60;;;20.40;71.80;;;;;;7381433;19;20006;-78
2023/10/06 13:14:06;;;;;;;11.55;4.30;;;20.50;71.30;;;;;;7379831;19;20017;-81
2023/10/06 13:17:18;;;;;;;15.00;4.28;;;20.60;71.50;;;;;;7380649;19;20006;-81
2023/10/06 13:19:49;;;;;;;11.20;4.30;;;20.80;70.30;;;;;;7380268;19;20114;-79
2023/10/06 13:42:23;;;;;;;10.68;4.20;;;21.30;70.60;;;;;;7453565;19;20376;-78
2023/10/06 13:45:29;;;;;;;12.63;3.92;;;21.30;67.60;;;;;;7438800;19;20014;-79
2023/10/06 13:48:00;;;;;;;9.35;4.38;;;21.40;68.80;;;;;;7437038;19;20430;-78
2023/10/06 13:50:30;;;;;;;11.93;3.75;;;21.50;68.30;;;;;;7428172;19;20041;-80
2023/10/06 13:53:02;;;;;;;9.30;4.00;;;21.60;68.30;;;;;;7442916;19;20021;-81
2023/10/06 13:55:32;;;;;;;9.50;4.05;;;21.60;68.00;;;;;;7416378;19;19999;-79
2023/10/06 13:58:04;;;;;;;9.07;3.88;;;21.70;67.80;;;;;;7414895;19;20010;-80
2023/10/06 14:04:05;;;;;;;11.75;3.85;;;21.80;68.60;;;;;;7314130;19;2004248;-80
2023/10/06 14:09:54;;;;;;;10.95;3.78;;;21.90;68.60;;;;;;7414719;19;20006;-78
2023/10/06 14:12:24;;;;;;;10.93;3.75;;;22.00;67.90;;;;;;7438751;19;20338;-80
2023/10/06 14:14:59;;;;;;;8.55;3.95;;;22.00;65.90;;;;;;7415021;19;20026;-78
2023/10/06 14:17:32;;;;;;;9.93;3.55;;;22.10;66.20;;;;;;7415320;19;20002;-77
2023/10/06 14:20:49;;;;;;;6.57;3.38;;;22.10;65.90;;;;;;7416874;19;20002;-81
2023/10/06 14:26:38;;;;;;;11.05;3.92;;;22.20;66.00;;;;;;7412446;19;20009;-83
2023/10/06 14:29:09;;;;;;;11.93;3.63;;;22.20;65.50;;;;;;7416234;19;20558;-81
2023/10/06 14:31:48;;;;;;;15.18;4.10;;;22.20;65.50;;;;;;7413015;19;20223;-78
2023/10/06 14:34:36;;;;;;;10.27;3.60;;;22.20;64.70;;;;;;7412088;19;20338;-79
2023/10/06 14:37:13;;;;;;;9.07;3.83;;;22.20;64.20;;;;;;7411424;19;20045;-78
2023/10/06 14:55:41;;;;;;;9.00;3.92;;;22.40;63.20;;;;;;7388621;19;19991;-84
2023/10/06 14:58:19;;;;;;;12.02;3.65;;;22.30;64.20;;;;;;7382287;19;20018;-79
2023/10/06 15:00:49;;;;;;;11.60;4.30;;;22.30;63.70;;;;;;7409864;19;20175;-80
2023/10/06 15:03:21;;;;;;;12.07;3.83;;;22.30;63.50;;;;;;7385996;19;20051;-80
2023/10/06 15:05:52;;;;;;;12.32;3.72;;;22.20;63.80;;;;;;7387743;19;20178;-80
2023/10/06 15:08:22;;;;;;;;;;;22.20;64.20;;;;;;7389960;19;20007;-80
2023/10/06 15:11:00;;;;;;;11.85;3.92;;;22.20;64.50;;;;;;7388102;19;19917;-80
2023/10/06 15:13:29;;;;;;;12.40;3.40;;;22.30;66.20;;;;;;7390435;19;20015;-79
2023/10/06 15:19:47;;;;;;;8.25;3.20;;;22.40;64.70;;;;;;7283372;19;2004583;-81
2023/10/06 15:25:30;;;;;;;8.48;3.63;;;22.30;68.30;;;;;;7395302;19;19998;-76
2023/10/06 15:28:04;;;;;;;11.82;3.38;;;22.30;66.30;;;;;;7404765;19;20288;-77
2023/10/06 15:30:41;;;;;;;9.15;3.50;;;22.30;67.30;;;;;;7381987;19;20007;-78
2023/10/06 15:33:12;;;;;;;16.50;3.83;;;22.30;67.00;;;;;;7383211;19;20002;-77
2023/10/06 15:35:43;;;;;;;9.35;3.42;;;22.30;66.70;;;;;;7385597;19;20008;-79
2023/10/06 15:38:19;;;;;;;8.48;3.85;;;22.20;68.70;;;;;;7399932;19;20062;-77
2023/10/06 15:53:50;;;;;;;13.10;4.05;;;22.00;72.20;;;;;;7363403;19;20014;-81
2023/10/06 16:12:11;;;;;;;10.27;3.38;;;21.40;75.10;;;;;;7387131;19;20107;-80
2023/10/06 16:15:05;;;;;;;8.50;3.40;;;21.40;76.10;;;;;;7388301;19;20007;-79
2023/10/06 16:21:13;;;;;;;;;;;;;;;;;;;;;
2023/10/06 16:24:22;;;;;;;13.05;4.10;;;21.10;77.00;;;;;;7407510;19;20007;-80
2023/10/06 16:30:15;;;;;;;9.55;3.70;;;20.90;78.90;;;;;;7387353;19;20011;-81
2023/10/06 16:36:10;;;;;;;;;;;;;;;;;;;;;
2023/10/06 16:48:54;;;;;;;;;;;;;;;;;;;;;
2023/10/06 16:55:11;;;;;;;5.90;3.10;;;19.90;79.80;;;;;;7419568;19;20010;-80
2023/10/06 16:58:24;;;;;;;;;;;;;;;;;;;;;
2023/10/06 17:01:03;;;;;;;;;;;;;;;;;;;;;
2023/10/06 17:03:47;;;;;;;8.50;3.53;;;19.60;79.50;;;;;;7423660;19;20003;-80
2023/10/06 17:06:53;;;;;;;15.10;3.53;;;19.50;79.70;;;;;;7441205;19;20014;-80
2023/10/06 17:16:12;;;;;;;;;;;;;;;;;;;;;
2023/10/06 17:22:03;;;;;;;;;;;;;;;;;;;;;
2023/10/06 17:24:46;;;;;;;;;;;;;;;;;;;;;
2023/10/06 17:27:15;;;;;;;6.95;3.75;;;19.10;81.60;;;;;;7419724;19;20035;-80
2023/10/06 17:30:17;;;;;;;11.55;3.58;;;19.00;82.00;;;;;;7442427;19;20006;-78
2023/10/06 17:33:19;;;;;;;;;;;;;;;;;;;;;
2023/10/06 17:36:07;;;;;;;9.27;3.47;;;18.90;82.50;;;;;;7418319;19;20022;-80
2023/10/06 17:38:57;;;;;;;;;;;;;;;;;;;;;
2023/10/06 17:41:37;;;;;;;10.77;3.53;;;18.80;82.70;;;;;;7440771;19;20011;-81
2023/10/06 17:44:50;;;;;;;;;;;;;;;;;;;;;
2023/10/06 17:50:48;;;;;;;;;;;;;;;;;;;;;
2023/10/06 17:53:34;;;;;;;10.80;3.22;;;18.60;82.90;;;;;;7428934;19;20006;-80
2023/10/06 17:56:08;;;;;;;6.72;3.00;;;18.50;82.70;;;;;;7423695;19;20003;-81
2023/10/06 17:59:28;;;;;;;;;;;;;;;;;;;;;
2023/10/06 18:02:09;;;;;;;;;;;;;;;;;;;;;
2023/10/06 18:08:01;;;;;;;;;;;;;;;;;;;;;
2023/10/06 18:26:58;;;;;;;19.30;6.18;;;18.00;84.60;;;;;;7386296;19;20043;-80
2023/10/06 18:29:26;;;;;;;;;;;17.90;85.20;;;;;;7388906;19;20010;-81
2023/10/06 18:32:10;;;;;;;;;;;;;;;;;;;;;
2023/10/06 18:34:48;;;;;;;7.80;3.33;;;17.90;85.30;;;;;;7389843;19;20011;-80
2023/10/06 18:37:37;;;;;;;;;;;;;;;;;;;;;
2023/10/06 18:40:40;;;;;;;;;;;;;;;;;;;;;
2023/10/06 18:44:03;;;;;;;;;;;;;;;;;;;;;
2023/10/06 18:50:34;;;;;;;;;;;;;;;;;;;;;
2023/10/06 18:53:34;;;;;;;;;;;;;;;;;;;;;
2023/10/06 19:03:14;;;;;;;;;;;;;;;;;;;;;
2023/10/06 19:06:17;;;;;;;10.82;4.00;;;17.50;86.50;;;;;;7387518;19;20233;-80
2023/10/06 19:22:39;;;;;;;12.10;4.55;;;17.50;87.20;;;;;;7419763;19;20368;-80
2023/10/06 19:25:10;;;;;;;11.50;4.45;;;17.30;88.20;;;;;;7422839;19;20019;-78
2023/10/06 19:27:49;;;;;;;12.35;4.00;;;17.30;88.20;;;;;;7443493;19;20029;-79
2023/10/06 19:30:45;;;;;;;10.13;4.07;;;17.30;88.00;;;;;;7419278;19;20029;-79
2023/10/06 19:33:24;;;;;;;13.88;6.72;;;17.20;87.90;;;;;;7420459;19;20018;-80
2023/10/06 19:36:38;;;;;;;;;;;;;;;;;;;;;
2023/10/06 19:39:31;;;;;;;;;;;;;;;;;;;;;
2023/10/06 19:42:10;;;;;;;;;;;;;;;;;;;;;
2023/10/06 19:44:43;;;;;;;15.43;5.20;;;17.10;89.20;;;;;;7417442;19;20009;-79
2023/10/06 19:47:30;;;;;;;20.13;7.25;;;17.00;89.10;;;;;;7421113;19;20021;-79
2023/10/06 19:50:52;;;;;;;;;;;;;;;;;;;;;
2023/10/06 19:53:46;;;;;;;;;;;;;;;;;;;;;
2023/10/06 19:56:33;;;;;;;17.92;4.72;;;17.00;89.40;;;;;;7461086;19;20067;-79
2023/10/06 19:59:30;;;;;;;;;;;;;;;;;;;;;
2023/10/06 20:02:33;;;;;;;8.73;4.55;;;16.90;89.50;;;;;;7416608;19;20502;-79
2023/10/06 20:05:30;;;;;;;;;;;;;;;;;;;;;
2023/10/06 20:07:59;;;;;;;19.00;6.20;;;16.90;89.00;;;;;;7417746;19;20406;-79
2023/10/06 20:11:09;;;;;;;21.75;7.15;;;16.90;89.20;;;;;;7442192;19;20010;-87
2023/10/06 20:13:49;;;;;;;12.82;6.82;;;16.90;89.40;;;;;;7413825;19;20397;-79
2023/10/06 20:16:43;;;;;;;;;;;;;;;;;;;;;
2023/10/06 20:35:58;;;;;;;11.52;6.05;;;16.70;89.90;;;;;;7421611;19;20340;-79
2023/10/06 20:39:07;;;;;;;;;;;;;;;;;;;;;
2023/10/06 20:42:17;;;;;;;12.23;5.68;;;16.60;90.00;;;;;;7420472;19;20011;-80
2023/10/06 20:45:09;;;;;;;10.25;5.25;;;16.50;89.90;;;;;;7415396;19;20028;-80
2023/10/06 20:51:27;;;;;;;;;;;;;;;;;;;;;
2023/10/06 20:54:45;;;;;;;8.52;4.28;;;16.50;90.00;;;;;;7418322;19;20035;-79
2023/10/06 20:57:28;;;;;;;12.88;5.13;;;16.40;90.00;;;;;;7422749;19;20039;-80
2023/10/06 21:00:26;;;;;;;;;;;;;;;;;;;;;
2023/10/06 21:03:44;;;;;;;14.07;5.85;;;16.40;90.10;;;;;;7420656;19;20013;-80
2023/10/06 21:06:23;;;;;;;13.95;5.95;;;16.40;90.00;;;;;;7417116;19;20003;-80
2023/10/06 21:09:07;;;;;;;14.90;5.47;;;16.30;90.10;;;;;;7439939;19;20044;-79
2023/10/06 21:12:09;;;;;;;13.30;6.45;;;16.30;90.20;;;;;;7419747;19;20010;-80
2023/10/06 21:15:44;;;;;;;;;;;;;;;;;;;;;
2023/10/06 21:18:46;;;;;;;;;;;;;;;;;;;;;
2023/10/06 21:24:20;;;;;;;;;;;;;;;;;;;;;
2023/10/06 21:27:29;;;;;;;;;;;;;;;;;;;;;
2023/10/06 21:49:41;;;;;;;14.88;5.60;;;16.20;90.20;;;;;;7417612;19;20356;-77
2023/10/06 21:52:11;;;;;;;19.20;6.05;;;16.00;90.30;;;;;;7416242;19;20017;-77
2023/10/06 21:54:47;;;;;;;12.35;5.43;;;16.00;90.20;;;;;;7442068;19;20010;-78